createdAt,value
2018-06-30T00:00:34.460Z,53.27
2018-06-30T00:01:34.457Z,52.96
2018-06-30T00:02:34.736Z,53.19
2018-06-30T00:03:34.673Z,53.31
2018-06-30T00:04:34.687Z,53.22
2018-06-30T00:05:34.596Z,53.08
2018-06-30T00:06:34.713Z,53.02
2018-06-30T00:07:34.657Z,53.17
2018-06-30T00:08:34.824Z,53.3
2018-06-30T00:09:34.407Z,53.24
2018-06-30T00:10:34.676Z,53.33
2018-06-30T00:11:34.764Z,53.13
2018-06-30T00:12:34.729Z,53.19
2018-06-30T00:13:34.595Z,53.15
2018-06-30T00:14:34.565Z,53.25
2018-06-30T00:15:34.500Z,53.15
2018-06-30T00:16:34.564Z,53.13
2018-06-30T00:17:34.690Z,53.18
2018-06-30T00:18:34.474Z,53.19
2018-06-30T00:19:34.648Z,53.17
2018-06-30T00:20:34.455Z,53.17
2018-06-30T00:21:34.645Z,53.02
2018-06-30T00:22:34.441Z,53.16
2018-06-30T00:23:34.457Z,53.11
2018-06-30T00:24:34.662Z,53.04
2018-06-30T00:25:34.511Z,53.07
2018-06-30T00:26:34.597Z,53.16
2018-06-30T00:27:34.393Z,53.19
2018-06-30T00:28:34.376Z,53.16
2018-06-30T00:29:34.672Z,53.2
2018-06-30T00:30:34.518Z,53.25
2018-06-30T00:31:34.681Z,53.2
2018-06-30T00:32:34.619Z,53.19
2018-06-30T00:33:34.615Z,53.07
2018-06-30T00:34:34.414Z,53.08
2018-06-30T00:35:34.782Z,53.03
2018-06-30T00:36:34.384Z,53.41
2018-06-30T00:37:34.609Z,53.25
2018-06-30T00:38:34.552Z,53.13
2018-06-30T00:39:34.676Z,53.23
2018-06-30T00:40:34.624Z,53.2
2018-06-30T00:41:34.710Z,53.32
2018-06-30T00:42:34.789Z,53.1
2018-06-30T00:43:34.795Z,53.32
2018-06-30T00:44:34.480Z,53.26
2018-06-30T00:45:34.710Z,53.1
2018-06-30T00:46:34.497Z,53.3
2018-06-30T00:47:34.403Z,53.13
2018-06-30T00:48:35.010Z,53.11
2018-06-30T00:49:34.713Z,53.17
2018-06-30T00:50:34.579Z,53.18
2018-06-30T00:51:34.654Z,53.14
2018-06-30T00:52:34.676Z,53.21
2018-06-30T00:53:34.580Z,53.09
2018-06-30T00:54:34.439Z,53.23
2018-06-30T00:55:34.561Z,53.18
2018-06-30T00:56:34.439Z,53.1
2018-06-30T00:57:34.719Z,53.19
2018-06-30T00:58:34.393Z,53.24
2018-06-30T00:59:34.757Z,53.12
2018-06-30T01:00:34.405Z,53.19
2018-06-30T01:01:34.641Z,53.16
2018-06-30T01:02:34.605Z,53.19
2018-06-30T01:03:34.690Z,53.28
2018-06-30T01:04:34.478Z,53.41
2018-06-30T01:05:34.449Z,53.09
2018-06-30T01:06:34.614Z,53.28
2018-06-30T01:07:34.787Z,53.27
2018-06-30T01:08:34.569Z,53.18
2018-06-30T01:09:34.707Z,53.25
2018-06-30T01:10:34.463Z,53.14
2018-06-30T01:11:34.732Z,53.27
2018-06-30T01:12:34.463Z,53.21
2018-06-30T01:13:34.563Z,53.27
2018-06-30T01:14:34.393Z,53.17
2018-06-30T01:15:34.611Z,53.19
2018-06-30T01:16:34.462Z,53.26
2018-06-30T01:17:34.698Z,53.28
2018-06-30T01:18:34.622Z,53.21
2018-06-30T01:19:34.598Z,53.11
2018-06-30T01:20:34.816Z,53.23
2018-06-30T01:21:34.544Z,53.17
2018-06-30T01:22:34.689Z,53.29
2018-06-30T01:23:34.408Z,53.3
2018-06-30T01:24:34.461Z,53.18
2018-06-30T01:25:34.599Z,53.21
2018-06-30T01:26:34.376Z,53.27
2018-06-30T01:27:34.445Z,53.26
2018-06-30T01:28:34.432Z,53.09
2018-06-30T01:29:34.652Z,53.35
2018-06-30T01:30:34.451Z,53.16
2018-06-30T01:31:34.375Z,53.09
2018-06-30T01:32:34.436Z,53.18
2018-06-30T01:33:34.620Z,53.18
2018-06-30T01:34:34.632Z,53.3
2018-06-30T01:35:34.445Z,53.4
2018-06-30T01:36:34.657Z,53.22
2018-06-30T01:37:34.550Z,53.29
2018-06-30T01:38:34.465Z,53.28
2018-06-30T01:39:34.619Z,53.36
2018-06-30T01:40:34.367Z,53.12
2018-06-30T01:41:34.537Z,53.22
2018-06-30T01:42:34.780Z,53.27
2018-06-30T01:43:34.391Z,53.21
2018-06-30T01:44:34.642Z,53.08
2018-06-30T01:45:34.674Z,53.14
2018-06-30T01:46:34.738Z,53.15
2018-06-30T01:47:34.674Z,53.17
2018-06-30T01:48:34.788Z,53.21
2018-06-30T01:49:34.466Z,53.16
2018-06-30T01:50:34.612Z,53.21
2018-06-30T01:51:34.443Z,53.25
2018-06-30T01:53:10.088Z,53.31
2018-06-30T01:53:34.454Z,53.02
2018-06-30T01:54:34.688Z,53.26
2018-06-30T01:55:34.379Z,53.33
2018-06-30T01:56:34.780Z,53.18
2018-06-30T01:57:34.726Z,53.28
2018-06-30T01:58:34.522Z,53.18
2018-06-30T01:59:34.716Z,53.24
2018-06-30T02:00:34.493Z,53.21
2018-06-30T02:01:34.507Z,53.11
2018-06-30T02:02:34.466Z,53.16
2018-06-30T02:03:34.469Z,53.36
2018-06-30T02:04:34.464Z,53.27
2018-06-30T02:05:34.640Z,53.28
2018-06-30T02:06:34.688Z,53.29
2018-06-30T02:07:34.711Z,53.21
2018-06-30T02:08:34.718Z,53.21
2018-06-30T02:09:34.477Z,53.22
2018-06-30T02:10:34.478Z,53.17
2018-06-30T02:11:34.807Z,53.17
2018-06-30T02:12:34.620Z,53.16
2018-06-30T02:13:44.841Z,53.08
2018-06-30T02:14:34.689Z,53.45
2018-06-30T02:15:34.613Z,53.38
2018-06-30T02:16:34.444Z,53.28
2018-06-30T02:17:34.685Z,53.18
2018-06-30T02:18:34.397Z,52.92
2018-06-30T02:19:34.502Z,53.31
2018-06-30T02:20:34.390Z,53.34
2018-06-30T02:21:34.765Z,53.35
2018-06-30T02:22:34.566Z,53.27
2018-06-30T02:23:34.711Z,53.18
2018-06-30T02:24:34.475Z,53.22
2018-06-30T02:25:34.783Z,53.28
2018-06-30T02:26:34.775Z,53.26
2018-06-30T02:27:34.369Z,53.36
2018-06-30T02:28:34.732Z,53.33
2018-06-30T02:29:34.648Z,53.34
2018-06-30T02:30:34.475Z,53.38
2018-06-30T02:31:34.573Z,53.34
2018-06-30T02:32:34.797Z,53.27
2018-06-30T02:33:34.501Z,53.21
2018-06-30T02:34:34.434Z,53.31
2018-06-30T02:35:34.782Z,53.11
2018-06-30T02:36:34.553Z,53.24
2018-06-30T02:37:34.636Z,53.22
2018-06-30T02:38:34.375Z,53.28
2018-06-30T02:39:34.607Z,53.22
2018-06-30T02:40:34.518Z,53.2
2018-06-30T02:41:34.420Z,53.16
2018-06-30T02:42:34.553Z,53.29
2018-06-30T02:43:34.623Z,53.25
2018-06-30T02:44:34.384Z,53.28
2018-06-30T02:45:34.626Z,53.34
2018-06-30T02:46:34.596Z,53.3
2018-06-30T02:47:34.389Z,53.24
2018-06-30T02:48:34.709Z,53.42
2018-06-30T02:49:34.544Z,53.25
2018-06-30T02:50:34.376Z,53.32
2018-06-30T02:51:34.445Z,53.28
2018-06-30T02:52:34.738Z,53.32
2018-06-30T02:53:34.664Z,53.34
2018-06-30T02:54:34.402Z,53.21
2018-06-30T02:55:34.534Z,53.18
2018-06-30T02:56:34.465Z,53.13
2018-06-30T02:57:34.546Z,53.28
2018-06-30T02:58:34.439Z,53.32
2018-06-30T02:59:34.692Z,53.14
2018-06-30T03:00:34.694Z,53.32
2018-06-30T03:01:34.550Z,53.23
2018-06-30T03:02:34.726Z,53.22
2018-06-30T03:03:34.472Z,53.18
2018-06-30T03:04:34.531Z,53.3
2018-06-30T03:05:34.642Z,53.12
2018-06-30T03:06:34.762Z,53.21
2018-06-30T03:07:34.482Z,53.24
2018-06-30T03:08:34.646Z,53.22
2018-06-30T03:09:34.689Z,53.36
2018-06-30T03:10:34.482Z,53.31
2018-06-30T03:11:34.632Z,53.33
2018-06-30T03:12:34.528Z,53.37
2018-06-30T03:13:34.610Z,53.29
2018-06-30T03:14:34.686Z,53.35
2018-06-30T03:15:34.499Z,53.11
2018-06-30T03:16:34.716Z,53.27
2018-06-30T03:17:34.422Z,53.28
2018-06-30T03:18:34.633Z,53.26
2018-06-30T03:19:34.459Z,53.27
2018-06-30T03:20:34.714Z,53.31
2018-06-30T03:21:34.401Z,53.43
2018-06-30T03:22:34.537Z,53.28
2018-06-30T03:23:34.644Z,53.29
2018-06-30T03:24:34.555Z,53.19
2018-06-30T03:25:34.396Z,53.27
2018-06-30T03:26:34.744Z,53.19
2018-06-30T03:27:34.641Z,53.18
2018-06-30T03:28:34.590Z,53.32
2018-06-30T03:29:34.463Z,53.31
2018-06-30T03:30:34.399Z,53.23
2018-06-30T03:31:34.543Z,53.3
2018-06-30T03:32:34.615Z,53.25
2018-06-30T03:33:34.425Z,53.25
2018-06-30T03:34:34.343Z,53.32
2018-06-30T03:35:34.748Z,53.27
2018-06-30T03:36:34.565Z,53.24
2018-06-30T03:37:34.431Z,53.17
2018-06-30T03:38:34.686Z,53.34
2018-06-30T03:39:34.615Z,53.29
2018-06-30T03:40:34.466Z,53.17
2018-06-30T03:41:34.323Z,53.28
2018-06-30T03:42:34.541Z,53.21
2018-06-30T03:43:34.286Z,53.3
2018-06-30T03:44:34.475Z,53.28
2018-06-30T03:45:34.567Z,53.21
2018-06-30T03:46:34.632Z,53.4
2018-06-30T03:47:34.439Z,53.25
2018-06-30T03:48:34.415Z,53.27
2018-06-30T03:49:34.506Z,53.33
2018-06-30T03:50:34.346Z,53.31
2018-06-30T03:51:34.576Z,53.46
2018-06-30T03:52:34.340Z,53.26
2018-06-30T03:53:34.448Z,53.24
2018-06-30T03:54:34.411Z,53.29
2018-06-30T03:55:34.317Z,53.31
2018-06-30T03:56:34.406Z,53.27
2018-06-30T03:57:34.458Z,53.3
2018-06-30T03:58:34.549Z,53.26
2018-06-30T03:59:34.540Z,53.17
2018-06-30T04:00:34.491Z,53.17
2018-06-30T04:01:34.391Z,53.27
2018-06-30T04:02:34.520Z,53.29
2018-06-30T04:03:34.556Z,53.28
2018-06-30T04:04:34.617Z,53.24
2018-06-30T04:05:34.545Z,53.18
2018-06-30T04:06:34.660Z,53.28
2018-06-30T04:07:34.564Z,53.35
2018-06-30T04:08:34.535Z,53.3
2018-06-30T04:09:34.466Z,53.29
2018-06-30T04:10:34.374Z,53.28
2018-06-30T04:11:34.443Z,53.25
2018-06-30T04:12:34.452Z,53.31
2018-06-30T04:13:34.422Z,53.25
2018-06-30T04:14:34.655Z,53.3
2018-06-30T04:15:34.551Z,53.35
2018-06-30T04:16:34.656Z,53.3
2018-06-30T04:17:34.377Z,53.24
2018-06-30T04:18:34.457Z,53.33
2018-06-30T04:19:34.366Z,53.26
2018-06-30T04:20:34.643Z,53.33
2018-06-30T04:21:34.455Z,53.3
2018-06-30T04:22:34.602Z,53.28
2018-06-30T04:23:34.521Z,53.29
2018-06-30T04:24:34.467Z,53.16
2018-06-30T04:25:34.648Z,53.29
2018-06-30T04:26:34.497Z,53.24
2018-06-30T04:27:34.623Z,53.3
2018-06-30T04:28:34.436Z,53.37
2018-06-30T04:29:34.574Z,53.28
2018-06-30T04:30:34.365Z,53.42
2018-06-30T04:31:34.458Z,53.25
2018-06-30T04:32:34.479Z,53.36
2018-06-30T04:33:34.599Z,53.24
2018-06-30T04:34:34.475Z,53.26
2018-06-30T04:35:34.303Z,53.52
2018-06-30T04:36:34.315Z,53.42
2018-06-30T04:37:34.524Z,53.3
2018-06-30T04:38:34.496Z,53.33
2018-06-30T04:39:34.414Z,53.27
2018-06-30T04:40:34.449Z,53.38
2018-06-30T04:41:34.351Z,53.28
2018-06-30T04:42:34.517Z,53.19
2018-06-30T04:43:34.551Z,53.24
2018-06-30T04:44:34.450Z,53.09
2018-06-30T04:45:34.572Z,53.39
2018-06-30T04:46:34.683Z,53.2
2018-06-30T04:47:34.590Z,53.46
2018-06-30T04:48:34.354Z,53.3
2018-06-30T04:49:34.446Z,53.27
2018-06-30T04:50:34.408Z,53.22
2018-06-30T04:51:34.349Z,53.46
2018-06-30T04:52:34.461Z,53.41
2018-06-30T04:53:34.427Z,53.28
2018-06-30T04:54:34.629Z,53.22
2018-06-30T04:55:34.488Z,53.16
2018-06-30T04:56:34.566Z,53.27
2018-06-30T04:57:34.616Z,53.39
2018-06-30T04:58:34.401Z,53.37
2018-06-30T04:59:34.385Z,53.36
2018-06-30T05:00:34.413Z,53.23
2018-06-30T05:01:34.558Z,53.19
2018-06-30T05:02:34.506Z,53.28
2018-06-30T05:03:34.626Z,53.27
2018-06-30T05:04:34.476Z,53.29
2018-06-30T05:05:34.528Z,53.35
2018-06-30T05:06:34.449Z,53.34
2018-06-30T05:07:34.458Z,53.32
2018-06-30T05:08:34.380Z,53.31
2018-06-30T05:09:34.471Z,53.25
2018-06-30T05:10:34.535Z,53.26
2018-06-30T05:11:34.456Z,53.29
2018-06-30T05:12:34.437Z,53.33
2018-06-30T05:13:34.331Z,53.4
2018-06-30T05:14:34.680Z,53.28
2018-06-30T05:15:34.773Z,53.39
2018-06-30T05:16:34.487Z,53.22
2018-06-30T05:17:34.316Z,53.25
2018-06-30T05:18:34.466Z,53.3
2018-06-30T05:19:34.437Z,53.29
2018-06-30T05:20:34.697Z,53.25
2018-06-30T05:21:34.484Z,53.21
2018-06-30T05:22:34.559Z,53.22
2018-06-30T05:23:34.445Z,53.21
2018-06-30T05:24:34.432Z,53.3
2018-06-30T05:25:34.469Z,53.28
2018-06-30T05:26:34.337Z,53.26
2018-06-30T05:27:34.680Z,53.32
2018-06-30T05:28:34.508Z,53.26
2018-06-30T05:29:34.545Z,53.21
2018-06-30T05:30:34.549Z,53.33
2018-06-30T05:31:34.317Z,53.25
2018-06-30T05:32:34.430Z,53.28
2018-06-30T05:33:34.747Z,53.25
2018-06-30T05:34:34.381Z,53.35
2018-06-30T05:35:44.433Z,53.32
2018-06-30T05:36:34.486Z,53.17
2018-06-30T05:37:34.354Z,53.32
2018-06-30T05:38:34.514Z,53.27
2018-06-30T05:39:34.416Z,53.3
2018-06-30T05:40:34.348Z,53.33
2018-06-30T05:41:34.543Z,53.26
2018-06-30T05:42:34.410Z,53.29
2018-06-30T05:43:34.383Z,53.27
2018-06-30T05:44:34.694Z,53.26
2018-06-30T05:45:34.686Z,53.19
2018-06-30T05:46:34.660Z,53.27
2018-06-30T05:47:34.452Z,53.24
2018-06-30T05:48:34.390Z,53.21
2018-06-30T05:49:34.267Z,53.18
2018-06-30T05:50:34.376Z,53.39
2018-06-30T05:51:34.663Z,53.12
2018-06-30T05:52:34.729Z,53.34
2018-06-30T05:53:34.475Z,53.19
2018-06-30T05:54:34.633Z,53.26
2018-06-30T05:55:34.486Z,53.22
2018-06-30T05:56:34.684Z,53.41
2018-06-30T05:57:34.316Z,53.13
2018-06-30T05:58:34.331Z,53.32
2018-06-30T05:59:34.436Z,53.33
2018-06-30T06:00:34.421Z,53.36
2018-06-30T06:01:34.489Z,53.29
2018-06-30T06:02:34.670Z,53.21
2018-06-30T06:03:34.422Z,53.27
2018-06-30T06:04:34.519Z,53.29
2018-06-30T06:05:34.588Z,53.27
2018-06-30T06:06:34.519Z,53.29
2018-06-30T06:07:34.333Z,53.22
2018-06-30T06:08:34.514Z,53.3
2018-06-30T06:09:34.412Z,53.16
2018-06-30T06:10:34.481Z,53.3
2018-06-30T06:11:34.619Z,53.22
2018-06-30T06:12:34.564Z,53.28
2018-06-30T06:13:34.523Z,53.24
2018-06-30T06:14:34.360Z,53.41
2018-06-30T06:15:34.386Z,53.3
2018-06-30T06:16:34.458Z,53.25
2018-06-30T06:17:34.516Z,53.33
2018-06-30T06:18:34.315Z,53.38
2018-06-30T06:19:34.466Z,53.24
2018-06-30T06:20:34.743Z,53.27
2018-06-30T06:21:34.501Z,53.11
2018-06-30T06:22:34.739Z,53.34
2018-06-30T06:23:34.406Z,53.34
2018-06-30T06:24:34.483Z,53.28
2018-06-30T06:25:34.501Z,53.32
2018-06-30T06:26:34.403Z,53.39
2018-06-30T06:27:34.862Z,53.3
2018-06-30T06:28:34.335Z,53.21
2018-06-30T06:29:34.310Z,53.22
2018-06-30T06:30:34.444Z,53.1
2018-06-30T06:31:34.493Z,53.21
2018-06-30T06:32:34.704Z,53.25
2018-06-30T06:33:34.508Z,53.32
2018-06-30T06:34:35.009Z,53.23
2018-06-30T06:35:34.517Z,53.07
2018-06-30T06:36:34.617Z,53.28
2018-06-30T06:37:34.688Z,53.24
2018-06-30T06:38:34.318Z,53.33
2018-06-30T06:39:34.515Z,53.27
2018-06-30T06:40:34.470Z,53.29
2018-06-30T06:41:34.587Z,53.03
2018-06-30T06:42:34.580Z,53.23
2018-06-30T06:43:34.463Z,53.24
2018-06-30T06:44:34.662Z,53.21
2018-06-30T06:45:34.365Z,53.23
2018-06-30T06:46:34.701Z,53.28
2018-06-30T06:47:34.329Z,53.25
2018-06-30T06:48:34.349Z,53.21
2018-06-30T06:49:34.349Z,53.19
2018-06-30T06:50:34.645Z,53.14
2018-06-30T06:51:34.348Z,53.11
2018-06-30T06:52:34.380Z,53.25
2018-06-30T06:53:34.561Z,53.25
2018-06-30T06:54:34.554Z,53.31
2018-06-30T06:55:34.492Z,53.3
2018-06-30T06:56:34.395Z,53.5
2018-06-30T06:57:34.573Z,53.34
2018-06-30T06:58:34.459Z,53.28
2018-06-30T06:59:34.697Z,53.42
2018-06-30T07:00:34.451Z,53.24
2018-06-30T07:01:34.566Z,53.22
2018-06-30T07:02:34.407Z,53.32
2018-06-30T07:03:34.482Z,53.29
2018-06-30T07:04:34.560Z,53.34
2018-06-30T07:05:34.294Z,53.16
2018-06-30T07:06:34.304Z,53.07
2018-06-30T07:07:34.547Z,53.24
2018-06-30T07:08:34.644Z,53.25
2018-06-30T07:09:34.404Z,53.25
2018-06-30T07:10:34.524Z,53.15
2018-06-30T07:11:34.486Z,53.15
2018-06-30T07:12:34.641Z,53.18
2018-06-30T07:13:34.712Z,53.21
2018-06-30T07:14:34.289Z,53.16
2018-06-30T07:15:34.367Z,53.26
2018-06-30T07:16:34.463Z,53.13
2018-06-30T07:17:34.419Z,53.22
2018-06-30T07:18:34.522Z,53.35
2018-06-30T07:19:34.533Z,53.26
2018-06-30T07:20:34.374Z,53.26
2018-06-30T07:21:34.623Z,53.24
2018-06-30T07:22:34.431Z,53.23
2018-06-30T07:23:34.360Z,53.1
2018-06-30T07:24:34.682Z,53.29
2018-06-30T07:25:34.617Z,53.14
2018-06-30T07:26:34.621Z,53.23
2018-06-30T07:27:34.450Z,53.2
2018-06-30T07:28:34.289Z,53.2
2018-06-30T07:29:34.490Z,53.07
2018-06-30T07:30:34.441Z,53.23
2018-06-30T07:31:34.651Z,53.18
2018-06-30T07:32:34.394Z,53.11
2018-06-30T07:33:34.468Z,53.26
2018-06-30T07:34:34.351Z,53.28
2018-06-30T07:35:34.461Z,53.1
2018-06-30T07:36:34.471Z,53.25
2018-06-30T07:37:34.648Z,53.28
2018-06-30T07:38:34.641Z,53.22
2018-06-30T07:39:34.438Z,53.18
2018-06-30T07:40:34.516Z,53.16
2018-06-30T07:41:44.452Z,53.41
2018-06-30T07:42:34.805Z,53.16
2018-06-30T07:43:34.491Z,53.23
2018-06-30T07:44:34.486Z,53.23
2018-06-30T07:45:34.491Z,53.26
2018-06-30T07:46:34.389Z,53.39
2018-06-30T07:47:34.540Z,53.57
2018-06-30T07:48:34.362Z,53.45
2018-06-30T07:49:34.683Z,53.47
2018-06-30T07:50:34.464Z,53.26
2018-06-30T07:51:34.394Z,53.44
2018-06-30T07:52:34.498Z,53.31
2018-06-30T07:53:34.639Z,53.42
2018-06-30T07:54:34.409Z,53.19
2018-06-30T07:55:34.276Z,53.38
2018-06-30T07:56:34.487Z,53.42
2018-06-30T07:57:34.373Z,53.31
2018-06-30T07:58:34.522Z,53.48
2018-06-30T07:59:34.543Z,53.27
2018-06-30T08:00:34.477Z,53.28
2018-06-30T08:01:34.345Z,53.44
2018-06-30T08:02:34.485Z,53.08
2018-06-30T08:03:34.464Z,53.35
2018-06-30T08:04:34.324Z,53.27
2018-06-30T08:05:34.423Z,53.26
2018-06-30T08:06:34.689Z,53.29
2018-06-30T08:07:34.452Z,53.23
2018-06-30T08:08:34.448Z,53.21
2018-06-30T08:09:34.452Z,53.28
2018-06-30T08:10:34.288Z,53.3
2018-06-30T08:11:34.454Z,53.19
2018-06-30T08:12:34.628Z,53.34
2018-06-30T08:13:34.436Z,53.27
2018-06-30T08:14:34.720Z,53.26
2018-06-30T08:15:34.647Z,53.37
2018-06-30T08:16:34.345Z,53.5
2018-06-30T08:17:34.433Z,53.17
2018-06-30T08:18:34.355Z,53.44
2018-06-30T08:19:34.262Z,53.35
2018-06-30T08:20:34.367Z,53.23
2018-06-30T08:21:34.347Z,53.34
2018-06-30T08:22:34.494Z,53.3
2018-06-30T08:23:34.513Z,53.23
2018-06-30T08:24:34.315Z,53.33
2018-06-30T08:25:34.324Z,53.22
2018-06-30T08:26:34.417Z,53.33
2018-06-30T08:27:34.439Z,53.36
2018-06-30T08:28:34.204Z,53.36
2018-06-30T08:29:34.684Z,53.29
2018-06-30T08:30:34.408Z,53.23
2018-06-30T08:31:34.555Z,53.24
2018-06-30T08:32:34.509Z,53.43
2018-06-30T08:33:34.527Z,53.3
2018-06-30T08:34:34.514Z,53.27
2018-06-30T08:35:34.492Z,53.27
2018-06-30T08:36:34.486Z,53.26
2018-06-30T08:37:34.307Z,53.25
2018-06-30T08:38:34.349Z,53.28
2018-06-30T08:39:34.308Z,53.3
2018-06-30T08:40:34.450Z,53.18
2018-06-30T08:41:34.408Z,53.15
2018-06-30T08:42:34.482Z,53.18
2018-06-30T08:43:34.290Z,53.36
2018-06-30T08:44:34.676Z,53.22
2018-06-30T08:45:34.538Z,53.25
2018-06-30T08:46:34.361Z,53.37
2018-06-30T08:47:34.369Z,53.18
2018-06-30T08:48:34.513Z,53.33
2018-06-30T08:49:34.797Z,53.25
2018-06-30T08:50:34.439Z,53.3
2018-06-30T08:51:34.477Z,53.3
2018-06-30T08:52:34.374Z,53.28
2018-06-30T08:53:34.414Z,53.28
2018-06-30T08:54:34.386Z,53.07
2018-06-30T08:55:44.572Z,53.19
2018-06-30T08:56:34.480Z,53.22
2018-06-30T08:57:34.441Z,53.22
2018-06-30T08:58:34.405Z,53.2
2018-06-30T08:59:34.820Z,53.24
2018-06-30T09:00:34.479Z,53.16
2018-06-30T09:01:34.539Z,53.17
2018-06-30T09:02:34.479Z,53.29
2018-06-30T09:03:34.679Z,53.25
2018-06-30T09:04:34.695Z,53.21
2018-06-30T09:05:34.443Z,53.32
2018-06-30T09:06:34.796Z,53.2
2018-06-30T09:07:34.474Z,53.28
2018-06-30T09:08:34.568Z,53.21
2018-06-30T09:09:34.285Z,53.2
2018-06-30T09:10:34.453Z,53.34
2018-06-30T09:11:34.373Z,53.3
2018-06-30T09:12:34.326Z,53.18
2018-06-30T09:13:34.464Z,53.22
2018-06-30T09:14:34.426Z,53.26
2018-06-30T09:15:34.502Z,53.1
2018-06-30T09:16:34.468Z,53.2
2018-06-30T09:17:34.311Z,53.25
2018-06-30T09:18:34.365Z,53.09
2018-06-30T09:19:34.321Z,53.1
2018-06-30T09:20:34.245Z,53.2
2018-06-30T09:21:34.639Z,53.28
2018-06-30T09:22:34.417Z,53.12
2018-06-30T09:23:34.542Z,53.15
2018-06-30T09:24:34.315Z,53.28
2018-06-30T09:25:34.454Z,53.28
2018-06-30T09:26:34.328Z,53.26
2018-06-30T09:27:34.460Z,53.71
2018-06-30T09:28:34.272Z,53.59
2018-06-30T09:29:34.248Z,53.7
2018-06-30T09:30:34.347Z,53.86
2018-06-30T09:31:34.513Z,54.06
2018-06-30T09:32:34.437Z,53.73
2018-06-30T09:33:34.477Z,53.94
2018-06-30T09:34:34.313Z,53.81
2018-06-30T09:35:34.241Z,53.75
2018-06-30T09:36:34.418Z,53.83
2018-06-30T09:37:34.321Z,53.74
2018-06-30T09:38:34.213Z,53.8
2018-06-30T09:39:34.330Z,54.17
2018-06-30T09:40:34.344Z,54.14
2018-06-30T09:41:34.325Z,54.22
2018-06-30T09:42:34.359Z,54.07
2018-06-30T09:43:34.583Z,54.11
2018-06-30T09:44:34.351Z,54.22
2018-06-30T09:45:34.601Z,53.99
2018-06-30T09:46:34.791Z,54.05
2018-06-30T09:47:34.289Z,53.82
2018-06-30T09:48:34.374Z,54.02
2018-06-30T09:49:34.636Z,53.89
2018-06-30T09:50:34.480Z,54
2018-06-30T09:51:34.509Z,54.06
2018-06-30T09:52:34.481Z,54.01
2018-06-30T09:53:34.343Z,53.89
2018-06-30T09:54:34.725Z,53.82
2018-06-30T09:55:34.449Z,53.91
2018-06-30T09:56:35.798Z,53.73
2018-06-30T09:57:34.705Z,53.89
2018-06-30T09:58:34.747Z,53.78
2018-06-30T09:59:34.445Z,53.81
2018-06-30T10:00:34.913Z,53.87
2018-06-30T10:01:34.770Z,53.86
2018-06-30T10:02:34.791Z,53.77
2018-06-30T10:03:34.478Z,53.86
2018-06-30T10:04:34.761Z,53.74
2018-06-30T10:05:34.281Z,53.83
2018-06-30T10:06:34.360Z,53.73
2018-06-30T10:07:34.832Z,53.71
2018-06-30T10:08:34.778Z,53.78
2018-06-30T10:09:34.467Z,53.79
2018-06-30T10:10:34.875Z,53.93
2018-06-30T10:11:34.800Z,53.91
2018-06-30T10:12:34.919Z,53.84
2018-06-30T10:13:34.495Z,54.02
2018-06-30T10:14:34.576Z,53.8
2018-06-30T10:15:34.291Z,53.86
2018-06-30T10:16:34.369Z,54.04
2018-06-30T10:17:34.835Z,53.75
2018-06-30T10:18:34.556Z,53.84
2018-06-30T10:19:34.486Z,53.8
2018-06-30T10:20:34.394Z,54.05
2018-06-30T10:21:34.429Z,53.96
2018-06-30T10:22:34.415Z,54.12
2018-06-30T10:23:34.631Z,54.16
2018-06-30T10:24:35.442Z,54.19
2018-06-30T10:25:34.400Z,54.2
2018-06-30T10:26:34.619Z,54.3
2018-06-30T10:27:34.609Z,54.25
2018-06-30T10:28:34.439Z,54.25
2018-06-30T10:29:34.658Z,54.34
2018-06-30T10:30:34.280Z,54.22
2018-06-30T10:31:34.712Z,54.55
2018-06-30T10:32:34.475Z,54.36
2018-06-30T10:33:34.478Z,53.94
2018-06-30T10:34:34.346Z,54.18
2018-06-30T10:35:34.414Z,53.94
2018-06-30T10:36:34.474Z,54.01
2018-06-30T10:37:34.586Z,54
2018-06-30T10:38:34.369Z,53.89
2018-06-30T10:39:34.382Z,53.73
2018-06-30T10:40:34.755Z,53.97
2018-06-30T10:41:34.425Z,53.86
2018-06-30T10:42:34.412Z,53.84
2018-06-30T10:43:34.255Z,53.85
2018-06-30T10:44:34.595Z,53.79
2018-06-30T10:45:34.496Z,53.96
2018-06-30T10:46:34.783Z,53.93
2018-06-30T10:47:34.284Z,53.82
2018-06-30T10:48:34.338Z,53.75
2018-06-30T10:49:34.775Z,53.89
2018-06-30T10:50:34.262Z,53.67
2018-06-30T10:51:34.337Z,53.69
2018-06-30T10:52:34.312Z,53.85
2018-06-30T10:53:34.435Z,53.74
2018-06-30T10:54:34.286Z,53.81
2018-06-30T10:55:34.347Z,53.63
2018-06-30T10:56:34.415Z,53.72
2018-06-30T10:57:34.454Z,53.72
2018-06-30T10:58:34.637Z,53.59
2018-06-30T10:59:34.573Z,53.75
2018-06-30T11:00:34.533Z,53.57
2018-06-30T11:01:34.392Z,53.68
2018-06-30T11:02:34.400Z,53.5
2018-06-30T11:03:34.440Z,53.56
2018-06-30T11:04:34.857Z,53.46
2018-06-30T11:05:34.541Z,53.56
2018-06-30T11:06:34.441Z,53.48
2018-06-30T11:07:34.272Z,53.57
2018-06-30T11:08:34.727Z,53.52
2018-06-30T11:09:34.487Z,53.64
2018-06-30T11:10:34.328Z,53.48
2018-06-30T11:11:34.440Z,53.44
2018-06-30T11:12:34.351Z,53.53
2018-06-30T11:13:34.400Z,53.53
2018-06-30T11:14:34.619Z,53.47
2018-06-30T11:15:36.463Z,53.55
2018-06-30T11:16:34.460Z,53.58
2018-06-30T11:17:34.581Z,53.38
2018-06-30T11:18:34.351Z,53.6
2018-06-30T11:19:34.307Z,53.43
2018-06-30T11:20:34.427Z,53.6
2018-06-30T11:21:34.423Z,53.45
2018-06-30T11:22:34.380Z,53.54
2018-06-30T11:23:34.385Z,53.54
2018-06-30T11:24:34.432Z,53.37
2018-06-30T11:25:34.394Z,53.48
2018-06-30T11:26:34.571Z,53.48
2018-06-30T11:27:34.285Z,53.5
2018-06-30T11:28:34.280Z,53.37
2018-06-30T11:29:34.654Z,53.49
2018-06-30T11:30:34.741Z,53.46
2018-06-30T11:31:34.490Z,53.46
2018-06-30T11:32:34.503Z,53.45
2018-06-30T11:33:34.461Z,53.46
2018-06-30T11:34:34.502Z,53.5
2018-06-30T11:35:34.372Z,53.45
2018-06-30T11:36:34.529Z,53.48
2018-06-30T11:37:44.348Z,53.41
2018-06-30T11:38:34.346Z,53.54
2018-06-30T11:39:34.357Z,53.63
2018-06-30T11:40:34.530Z,53.41
2018-06-30T11:41:34.367Z,53.42
2018-06-30T11:42:44.341Z,53.44
2018-06-30T11:43:34.500Z,53.4
2018-06-30T11:44:34.390Z,53.45
2018-06-30T11:45:34.399Z,53.43
2018-06-30T11:46:34.404Z,53.49
2018-06-30T11:47:44.408Z,53.41
2018-06-30T11:48:34.415Z,53.42
2018-06-30T11:49:34.423Z,53.45
2018-06-30T11:50:34.431Z,53.3
2018-06-30T11:51:34.443Z,53.61
2018-06-30T11:52:34.434Z,53.58
2018-06-30T11:53:34.542Z,53.39
2018-06-30T11:54:34.514Z,53.44
2018-06-30T11:55:34.469Z,53.43
2018-06-30T11:56:34.478Z,53.5
2018-06-30T11:57:34.522Z,53.48
2018-06-30T11:58:34.704Z,53.4
2018-06-30T11:59:34.491Z,53.37
2018-06-30T12:00:34.390Z,53.49
2018-06-30T12:01:34.296Z,53.64
2018-06-30T12:02:34.350Z,53.59
2018-06-30T12:03:34.566Z,53.57
2018-06-30T12:04:34.299Z,53.36
2018-06-30T12:05:34.454Z,53.49
2018-06-30T12:06:34.191Z,53.53
2018-06-30T12:07:34.287Z,53.56
2018-06-30T12:08:34.485Z,53.45
2018-06-30T12:09:34.314Z,53.41
2018-06-30T12:10:34.241Z,53.49
2018-06-30T12:11:34.589Z,53.45
2018-06-30T12:12:34.153Z,53.41
2018-06-30T12:13:34.299Z,53.49
2018-06-30T12:14:34.443Z,53.38
2018-06-30T12:15:34.239Z,53.36
2018-06-30T12:16:34.343Z,53.48
2018-06-30T12:17:34.479Z,53.32
2018-06-30T12:18:34.444Z,53.35
2018-06-30T12:19:34.363Z,53.47
2018-06-30T12:20:34.308Z,53.38
2018-06-30T12:21:34.411Z,53.39
2018-06-30T12:22:34.488Z,53.38
2018-06-30T12:23:34.228Z,53.42
2018-06-30T12:24:34.344Z,53.44
2018-06-30T12:25:34.451Z,53.63
2018-06-30T12:26:34.176Z,53.49
2018-06-30T12:27:34.273Z,53.43
2018-06-30T12:28:34.272Z,53.44
2018-06-30T12:29:34.181Z,53.53
2018-06-30T12:30:34.283Z,53.54
2018-06-30T12:31:34.441Z,53.41
2018-06-30T12:32:34.227Z,53.46
2018-06-30T12:33:34.308Z,53.56
2018-06-30T12:34:34.396Z,53.49
2018-06-30T12:35:34.161Z,53.48
2018-06-30T12:36:34.534Z,53.51
2018-06-30T12:37:44.509Z,53.5
2018-06-30T12:38:34.429Z,53.54
2018-06-30T12:39:34.499Z,53.41
2018-06-30T12:40:34.421Z,53.45
2018-06-30T12:41:34.370Z,53.47
2018-06-30T12:42:34.112Z,53.52
2018-06-30T12:43:34.563Z,53.47
2018-06-30T12:44:35.352Z,53.41
2018-06-30T12:45:34.518Z,53.5
2018-06-30T12:46:34.390Z,53.43
2018-06-30T12:47:34.399Z,53.6
2018-06-30T12:48:34.307Z,53.44
2018-06-30T12:49:34.152Z,53.46
2018-06-30T12:50:34.339Z,53.42
2018-06-30T12:51:34.145Z,53.37
2018-06-30T12:52:34.159Z,53.55
2018-06-30T12:53:34.318Z,53.46
2018-06-30T12:54:34.703Z,53.52
2018-06-30T12:55:34.358Z,53.41